Terminal Aerodrome Forecast
Issued by NWS

Home | Current Version | Previous Version | Text Only | Print | Product List | Glossary On
Versions: 1 2 3 4 5 6 7 8 9 10 11 12 13
110
FTUS43 KMQT 300525
TAFIWD
TAF
KIWD 300525Z 3006/3106 11005KT P6SM OVC080
     FM302100 07007KT P6SM BKN045
     FM310300 08006KT P6SM SCT050=

USA.gov is the U.S. government's official web portal to all federal, state and local government web resources and services.